Time;durP1;ratioP1;P1;durP2;ratioP2;P2;SDS_P1;SDS_P2;PMS_P1;PMS_P2;Temp;Humidity;BMP_temperature;BMP_pressure;BME280_temperature;BME280_humidity;BME280_pressure;Samples;Min_cycle;Max_cycle;Signal;HPM_P1;HPM_P2
2022/02/12 00:00:43;;;;;;;;;6.25;5.00;;;;;13.53;47.34;99579.53;4819323;28;102123;-79
2022/02/12 00:03:11;;;;;;;;;5.00;4.00;;;;;13.52;47.75;99577.84;4810484;28;103246;-79
2022/02/12 00:05:38;;;;;;;;;3.75;3.25;;;;;13.51;47.15;99577.00;4817773;28;102578;-79
2022/02/12 00:08:06;;;;;;;;;5.00;4.00;;;;;13.50;47.01;99577.22;4814430;28;104097;-81
2022/02/12 00:10:33;;;;;;;;;2.00;2.00;;;;;13.50;47.52;99577.22;4816027;28;102200;-79
2022/02/12 00:13:00;;;;;;;;;4.25;4.00;;;;;13.48;47.21;99582.84;4820249;28;102483;-79
2022/02/12 00:15:27;;;;;;;;;4.00;4.00;;;;;13.50;47.65;99579.94;4817189;29;103852;-80
2022/02/12 00:17:56;;;;;;;;;3.75;3.50;;;;;13.46;47.14;99584.94;4814586;28;108993;-80
2022/02/12 00:20:23;;;;;;;;;4.25;3.00;;;;;13.47;47.23;99585.75;4816635;28;102052;-80
2022/02/12 00:22:50;;;;;;;;;4.00;3.00;;;;;13.48;47.18;99587.44;4816676;28;102023;-80
2022/02/12 00:25:17;;;;;;;;;5.00;5.00;;;;;13.49;48.22;99594.56;4818568;28;102354;-79
2022/02/12 00:27:44;;;;;;;;;4.75;4.00;;;;;13.50;47.56;99593.53;4829717;28;104090;-80
2022/02/12 00:30:11;;;;;;;;;3.50;3.50;;;;;13.50;47.54;99598.97;4813238;28;103898;-80
2022/02/12 00:32:38;;;;;;;;;4.25;4.00;;;;;13.49;47.71;99603.53;4818742;28;102083;-80
2022/02/12 00:35:05;;;;;;;;;4.25;4.25;;;;;13.49;47.69;99606.25;4814955;28;102133;-79
2022/02/12 00:37:33;;;;;;;;;3.00;3.00;;;;;13.48;47.04;99622.75;4814928;28;104392;-79
2022/02/12 00:40:02;;;;;;;;;4.00;4.00;;;;;13.48;47.90;99625.47;4815267;28;102519;-79
2022/02/12 00:42:29;;;;;;;;;4.00;4.00;;;;;13.47;47.58;99632.78;4814170;28;102070;-79
2022/02/12 00:44:57;;;;;;;;;4.25;3.25;;;;;13.47;46.99;99630.06;4823959;28;102718;-80
2022/02/12 00:47:24;;;;;;;;;5.00;4.50;;;;;13.46;47.00;99619.41;4805889;28;108464;-81
2022/02/12 00:49:52;;;;;;;;;4.25;3.50;;;;;13.47;47.48;99629.22;4829550;28;103959;-80
2022/02/12 00:52:19;;;;;;;;;4.00;4.00;;;;;13.47;47.68;99631.94;4814058;28;102545;-79
2022/02/12 00:54:46;;;;;;;;;4.50;3.00;;;;;13.45;48.10;99626.72;4815594;28;102161;-79
2022/02/12 00:57:13;;;;;;;;;2.75;2.00;;;;;13.46;47.98;99635.72;4801716;29;104201;-80
2022/02/12 00:59:41;;;;;;;;;4.25;4.00;;;;;13.45;47.81;99631.31;4821351;28;102618;-80
2022/02/12 01:02:09;;;;;;;;;3.50;3.50;;;;;13.45;47.28;99636.72;4802642;28;103709;-80
2022/02/12 01:04:36;;;;;;;;;5.75;4.00;;;;;13.43;47.21;99633.34;4798361;28;102634;-79
2022/02/12 01:07:03;;;;;;;;;6.00;3.25;;;;;13.44;47.52;99633.16;4799448;28;103828;-80
2022/02/12 01:09:31;;;;;;;;;4.00;2.50;;;;;13.45;46.93;99623.16;4810881;28;104691;-79
2022/02/12 01:11:58;;;;;;;;;4.75;3.00;;;;;13.46;46.95;99627.56;4819085;28;103771;-81
2022/02/12 01:14:25;;;;;;;;;4.00;4.00;;;;;13.46;47.69;99627.56;4832451;28;102524;-80
2022/02/12 01:16:52;;;;;;;;;4.00;3.00;;;;;13.46;47.12;99631.13;4815447;28;104114;-79
2022/02/12 01:19:19;;;;;;;;;2.00;1.00;;;;;13.44;47.12;99626.91;4821349;28;104008;-79
2022/02/12 01:21:47;;;;;;;;;3.25;2.00;;;;;13.46;47.71;99627.56;4819855;28;102238;-79
2022/02/12 01:24:16;;;;;;;;;3.75;3.00;;;;;13.44;47.00;99645.91;4820206;28;103348;-79
2022/02/12 01:26:44;;;;;;;;;5.00;4.25;;;;;13.44;47.29;99637.75;4818217;28;104527;-79
2022/02/12 01:29:11;;;;;;;;;2.75;2.75;;;;;13.43;47.48;99639.63;4818064;28;103765;-80
2022/02/12 01:31:38;;;;;;;;;6.00;3.50;;;;;13.44;47.86;99632.31;4816008;28;102894;-80
2022/02/12 01:34:06;;;;;;;;;2.75;2.25;;;;;13.44;46.97;99635.03;4814880;28;102750;-79
2022/02/12 01:36:33;;;;;;;;;5.00;4.00;;;;;13.44;47.22;99635.03;4815131;28;104287;-80
2022/02/12 01:39:00;;;;;;;;;4.25;4.00;;;;;13.39;47.59;99639.19;4810714;28;102541;-79
2022/02/12 01:41:27;;;;;;;;;4.50;4.25;;;;;13.42;46.91;99646.09;4811563;28;102745;-80
2022/02/12 01:43:54;;;;;;;;;3.00;2.75;;;;;13.41;47.09;99641.72;4818572;28;102460;-80
2022/02/12 01:46:22;;;;;;;;;1.75;1.75;;;;;13.39;47.80;99643.78;4811954;28;104120;-80
2022/02/12 01:48:51;;;;;;;;;3.00;2.00;;;;;13.39;47.88;99649.22;4814328;28;109741;-80
2022/02/12 01:51:21;;;;;;;;;4.25;3.00;;;;;13.39;47.76;99652.78;4813513;28;102536;-80
2022/02/12 01:53:48;;;;;;;;;3.00;3.00;;;;;13.40;47.38;99651.75;4814892;28;102381;-80
2022/02/12 01:56:15;;;;;;;;;3.50;2.00;;;;;13.41;47.85;99666.16;4808488;28;104735;-79
2022/02/12 01:58:42;;;;;;;;;3.00;3.00;;;;;13.40;46.69;99673.47;4820306;28;102225;-80
2022/02/12 02:01:09;;;;;;;;;2.25;2.00;;;;;13.41;47.44;99674.31;4828622;28;103385;-79
2022/02/12 02:03:36;;;;;;;;;3.00;2.50;;;;;13.40;47.15;99684.34;4803769;28;102245;-79
2022/02/12 02:06:03;;;;;;;;;3.00;3.00;;;;;13.40;46.93;99683.50;4804864;28;104247;-79
2022/02/12 02:08:30;;;;;;;;;3.00;3.00;;;;;13.40;47.18;99694.38;4805843;28;105345;-79
2022/02/12 02:10:57;;;;;;;;;2.75;2.75;;;;;13.41;47.20;99696.06;4812009;28;102330;-80
2022/02/12 02:13:27;;;;;;;;;2.50;2.50;;;;;13.40;47.70;99697.09;4813762;28;102818;-80
2022/02/12 02:15:54;;;;;;;;;3.50;3.50;;;;;13.39;47.19;99707.09;4807860;28;104106;-79
2022/02/12 02:18:22;;;;;;;;;3.00;3.00;;;;;13.38;47.39;99708.13;4812330;28;102247;-80
2022/02/12 02:20:49;;;;;;;;;3.00;3.00;;;;;13.38;47.27;99713.56;4816094;28;102247;-80
2022/02/12 02:23:17;;;;;;;;;3.00;2.50;;;;;13.38;47.58;99716.28;4808814;28;102752;-80
2022/02/12 02:25:45;;;;;;;;;3.75;3.25;;;;;13.36;47.35;99723.78;4809467;28;104254;-79
2022/02/12 02:28:12;;;;;;;;;5.50;4.00;;;;;13.36;47.05;99725.66;4806128;28;102332;-80
2022/02/12 02:30:40;;;;;;;;;3.00;3.00;;;;;13.34;46.77;99731.28;4800605;28;102805;-80
2022/02/12 02:33:07;;;;;;;;;4.00;4.00;;;;;13.34;47.73;99731.28;4808454;28;104844;-79
2022/02/12 02:35:34;;;;;;;;;1.75;1.25;;;;;13.35;46.96;99735.69;4815666;28;104136;-80
2022/02/12 02:38:08;;;;;;;;;3.00;3.00;;;;;13.38;46.79;99731.72;4813473;28;103246;-80
2022/02/12 02:40:35;;;;;;;;;3.25;3.25;;;;;13.35;47.42;99738.41;4815197;28;103599;-79
2022/02/12 02:43:03;;;;;;;;;4.50;3.00;;;;;13.36;46.76;99742.81;4825423;28;104140;-79
2022/02/12 02:45:31;;;;;;;;;3.00;3.00;;;;;13.36;47.62;99744.69;4815324;28;103848;-79
2022/02/12 02:48:00;;;;;;;;;2.25;2.00;;;;;13.37;47.15;99749.09;4810845;28;102861;-79
2022/02/12 02:56:04;;;;;;;;;2.25;2.00;;;;;13.35;47.41;99760.13;4817572;28;108860;-79
2022/02/12 02:58:36;;;;;;;;;3.00;3.00;;;;;13.35;46.61;99765.56;4815798;28;104130;-79
2022/02/12 03:01:09;;;;;;;;;4.25;3.00;;;;;13.34;47.06;99766.59;4817646;28;102221;-80
2022/02/12 03:03:37;;;;;;;;;2.00;2.00;;;;;13.32;47.04;99775.97;4813736;28;103463;-79
2022/02/12 03:06:04;;;;;;;;;2.00;2.00;;;;;13.31;47.82;99777.84;4818360;28;104166;-79
2022/02/12 03:08:31;;;;;;;;;2.00;2.00;;;;;13.30;46.77;99789.75;4815585;28;106143;-79
2022/02/12 03:10:59;;;;;;;;;3.00;2.50;;;;;13.33;46.77;99783.06;4819679;28;103370;-80
2022/02/12 03:13:26;;;;;;;;;2.75;2.00;;;;;13.38;46.53;99789.63;4815493;28;103329;-79
2022/02/12 03:15:53;;;;;;;;;4.75;3.00;;;;;13.41;47.42;99788.44;4819218;28;105728;-79
2022/02/12 03:18:20;;;;;;;;;3.75;3.00;;;;;13.44;47.25;99789.91;4812731;28;102461;-79
2022/02/12 03:20:47;;;;;;;;;2.50;2.25;;;;;13.50;46.68;99791.88;4819099;28;102190;-79
2022/02/12 03:23:14;;;;;;;;;3.00;2.75;;;;;13.51;46.58;99799.00;4819239;28;102289;-79
2022/02/12 03:25:43;;;;;;;;;2.00;2.00;;;;;13.55;46.68;99800.31;4814769;28;104055;-79
2022/02/12 03:28:10;;;;;;;;;2.25;2.00;;;;;13.58;46.15;99810.78;4816215;28;102256;-79
2022/02/12 03:30:39;;;;;;;;;5.00;3.50;;;;;13.61;46.23;99815.81;4816636;28;102680;-79
2022/02/12 03:33:06;;;;;;;;;3.00;3.00;;;;;13.65;46.43;99815.25;4817667;28;103173;-79
2022/02/12 03:35:34;;;;;;;;;2.00;1.25;;;;;13.68;46.61;99823.03;4815146;28;104033;-79
2022/02/12 03:38:07;;;;;;;;;3.00;2.00;;;;;13.69;46.23;99821.13;4814455;28;102444;-79
2022/02/12 03:40:35;;;;;;;;;2.00;2.00;;;;;13.69;46.25;99823.84;4808474;28;102499;-78
2022/02/12 03:43:04;;;;;;;;;2.00;2.00;;;;;13.74;45.97;99826.84;4794620;28;102775;-80
2022/02/12 03:45:31;;;;;;;;;1.75;1.00;;;;;13.72;46.42;99828.94;4800520;29;103277;-79
2022/02/12 03:47:58;;;;;;;;;3.50;2.00;;;;;13.75;46.37;99833.97;4797773;29;102108;-80
2022/02/12 03:50:27;;;;;;;;;2.75;2.00;;;;;13.76;46.79;99833.78;4817085;28;103135;-79
2022/02/12 03:52:54;;;;;;;;;1.25;1.00;;;;;13.80;46.33;99839.69;4817233;28;103072;-79
2022/02/12 03:55:21;;;;;;;;;1.75;1.50;;;;;13.80;46.30;99847.84;4813331;29;104206;-80
2022/02/12 03:57:48;;;;;;;;;2.75;2.00;;;;;13.82;45.59;99852.03;4818423;28;102317;-79
2022/02/12 04:00:18;;;;;;;;;2.50;2.00;;;;;13.83;45.96;99866.47;4809664;28;111119;-79
2022/02/12 04:02:45;;;;;;;;;3.00;1.50;;;;;13.85;45.87;99869.88;4818488;28;103778;-79
2022/02/12 04:05:15;;;;;;;;;2.50;2.50;;;;;13.86;45.73;99885.16;4813955;28;104198;-79
2022/02/12 04:07:43;;;;;;;;;1.25;1.00;;;;;13.88;45.64;99888.50;4814724;28;102543;-79
2022/02/12 04:10:16;;;;;;;;;1.00;0.00;;;;;13.86;45.96;99882.44;4816914;28;102274;-79
2022/02/12 04:12:48;;;;;;;;;2.00;2.00;;;;;13.87;46.01;99891.44;4820762;28;102599;-79
2022/02/12 04:15:15;;;;;;;;;2.25;1.50;;;;;13.86;46.27;99906.91;4814780;28;103960;-80
2022/02/12 04:17:42;;;;;;;;;2.50;2.00;;;;;13.86;45.81;99901.47;4817009;28;102064;-79
2022/02/12 04:20:15;;;;;;;;;2.00;2.00;;;;;13.87;46.34;99903.13;4817052;28;102277;-79
2022/02/12 04:22:42;;;;;;;;;2.50;2.00;;;;;13.86;45.89;99909.63;4818163;28;102441;-79
2022/02/12 04:25:11;;;;;;;;;1.75;1.75;;;;;13.87;45.51;99914.00;4813506;28;104017;-80
2022/02/12 04:27:38;;;;;;;;;2.75;1.25;;;;;13.85;46.11;99908.78;4813875;28;102272;-80
2022/02/12 04:30:06;;;;;;;;;2.00;2.00;;;;;13.83;45.66;99908.09;4814008;28;102148;-80
2022/02/12 04:32:33;;;;;;;;;1.50;1.00;;;;;13.82;45.99;99911.03;4804803;29;102486;-81
2022/02/12 04:35:00;;;;;;;;;0.00;0.00;;;;;13.75;45.58;99912.81;4813956;28;108727;-81
2022/02/12 04:37:27;;;;;;;;;2.50;1.75;;;;;13.75;45.57;99918.25;4797218;28;102382;-81
2022/02/12 04:39:54;;;;;;;;;4.75;2.00;;;;;13.72;45.76;99918.63;4816594;28;102449;-79
2022/02/12 04:42:21;;;;;;;;;1.75;1.75;;;;;13.73;46.30;99920.31;4808563;28;103828;-78
2022/02/12 04:44:49;;;;;;;;;2.00;2.00;;;;;13.70;46.39;99921.53;4817454;28;104309;-80
2022/02/12 04:47:17;;;;;;;;;1.00;1.00;;;;;13.71;45.75;99922.38;4819421;28;102632;-79
2022/02/12 04:49:44;;;;;;;;;2.00;2.00;;;;;13.72;45.69;99924.06;4817198;28;102256;-79
2022/02/12 04:52:12;;;;;;;;;2.00;1.00;;;;;13.73;45.53;99933.91;4821219;28;102358;-79
2022/02/12 04:54:39;;;;;;;;;2.00;2.00;;;;;13.73;46.03;99931.19;4802464;28;109210;-79
2022/02/12 04:57:06;;;;;;;;;1.75;1.25;;;;;13.70;46.08;99943.28;4796791;28;104096;-79
2022/02/12 04:59:34;;;;;;;;;3.00;2.00;;;;;13.69;45.65;99943.44;4836886;28;102525;-79
2022/02/12 05:02:01;;;;;;;;;3.00;2.00;;;;;13.69;46.58;99948.88;4819614;28;102265;-79
2022/02/12 05:04:28;;;;;;;;;2.00;2.00;;;;;13.66;46.58;99944.69;4815173;28;104360;-79
2022/02/12 05:06:55;;;;;;;;;1.00;1.00;;;;;13.66;45.98;99954.72;4821776;28;102587;-79
2022/02/12 05:09:22;;;;;;;;;1.25;1.25;;;;;13.65;46.52;99953.88;4820183;28;102543;-79
2022/02/12 05:11:50;;;;;;;;;1.75;1.75;;;;;13.64;46.26;99951.34;4820424;28;102631;-79
2022/02/12 05:14:18;;;;;;;;;2.75;2.00;;;;;13.62;45.89;99953.41;4817578;28;103158;-79
2022/02/12 05:16:45;;;;;;;;;2.00;2.00;;;;;13.59;46.22;99951.06;4818435;28;102769;-79
2022/02/12 05:19:12;;;;;;;;;2.25;1.00;;;;;13.58;46.38;99965.69;4818108;28;102449;-80
2022/02/12 05:21:40;;;;;;;;;2.50;2.50;;;;;13.55;46.26;99969.63;4817716;29;102476;-80
2022/02/12 05:24:07;;;;;;;;;2.00;2.00;;;;;13.55;46.40;99971.50;4816091;28;104187;-80
2022/02/12 05:26:34;;;;;;;;;1.75;1.75;;;;;13.53;46.07;99985.28;4822023;28;112198;-80
2022/02/12 05:29:02;;;;;;;;;3.50;2.00;;;;;13.53;46.42;99984.41;4818187;28;102822;-80
2022/02/12 05:31:29;;;;;;;;;1.00;1.00;;;;;13.52;45.58;99993.59;4818863;28;102451;-80
2022/02/12 05:33:57;;;;;;;;;1.00;1.00;;;;;13.52;46.34;99996.31;4816724;28;104356;-80
2022/02/12 05:36:24;;;;;;;;;3.00;2.00;;;;;13.52;46.73;100001.75;4815125;28;102115;-80
2022/02/12 05:38:51;;;;;;;;;1.00;1.00;;;;;13.51;45.91;100005.53;4816538;29;102368;-80
2022/02/12 05:41:18;;;;;;;;;1.00;1.00;;;;;13.48;46.76;100001.28;4817686;28;103311;-80
2022/02/12 05:43:45;;;;;;;;;3.00;2.00;;;;;13.47;45.74;99998.75;4818181;28;104282;-80
2022/02/12 05:46:12;;;;;;;;;2.00;1.00;;;;;13.48;46.89;100001.28;4801644;28;106120;-80
2022/02/12 05:48:39;;;;;;;;;1.75;1.75;;;;;13.47;46.80;100009.59;4820786;28;103602;-80
2022/02/12 05:51:06;;;;;;;;;1.75;1.00;;;;;13.46;46.83;100010.66;4818494;28;102487;-80
2022/02/12 05:53:34;;;;;;;;;1.75;1.00;;;;;13.46;46.82;100007.94;4816941;28;104449;-80
2022/02/12 05:56:01;;;;;;;;;2.00;1.75;;;;;13.45;45.93;100011.69;4815496;28;102562;-80
2022/02/12 05:58:28;;;;;;;;;1.00;1.00;;;;;13.46;46.68;100018.81;4820010;28;102115;-80
2022/02/12 06:00:55;;;;;;;;;1.00;1.00;;;;;13.44;46.53;100024.41;4815800;28;105618;-80
2022/02/12 06:03:22;;;;;;;;;3.00;2.00;;;;;13.42;46.72;100029.19;4818564;28;104054;-80
2022/02/12 06:05:50;;;;;;;;;2.25;1.00;;;;;13.39;46.74;100022.25;4817463;28;102265;-80
2022/02/12 06:08:17;;;;;;;;;0.75;0.75;;;;;13.38;45.91;100022.44;4819514;28;103560;-80
2022/02/12 06:10:44;;;;;;;;;1.50;1.00;;;;;13.36;46.01;100030.78;4816115;28;102202;-80
2022/02/12 06:13:12;;;;;;;;;1.00;1.00;;;;;13.38;46.09;100025.16;4817987;28;104157;-80
2022/02/12 06:15:39;;;;;;;;;3.00;2.75;;;;;13.38;46.03;100034.16;4813614;28;102741;-80
2022/02/12 06:18:05;;;;;;;;;2.00;2.00;;;;;13.39;46.43;100041.28;4819482;28;102204;-79
2022/02/12 06:20:33;;;;;;;;;2.00;1.00;;;;;13.39;46.13;100035.00;4820778;28;102586;-80
2022/02/12 06:23:00;;;;;;;;;1.50;1.50;;;;;13.38;45.69;100031.44;4808640;29;106795;-80
2022/02/12 06:25:27;;;;;;;;;1.00;1.00;;;;;13.38;46.25;100041.44;4815104;28;102511;-80
2022/02/12 06:27:57;;;;;;;;;1.00;1.00;;;;;13.38;46.64;100047.72;4810790;28;103724;-80
2022/02/12 06:30:25;;;;;;;;;2.00;1.00;;;;;13.36;46.84;100059.81;4817699;28;103454;-80
2022/02/12 06:32:52;;;;;;;;;1.75;1.50;;;;;13.37;46.27;100061.53;4816214;28;103924;-80
2022/02/12 06:35:20;;;;;;;;;1.50;1.00;;;;;13.36;45.98;100066.09;4813614;28;102461;-80
2022/02/12 06:37:47;;;;;;;;;1.00;1.00;;;;;13.35;46.59;100071.72;4821821;28;102083;-80
2022/02/12 06:40:14;;;;;;;;;1.00;1.00;;;;;13.35;46.14;100078.00;4817494;28;103185;-80
2022/02/12 06:42:42;;;;;;;;;1.00;1.00;;;;;13.36;46.72;100070.69;4810197;28;105162;-80
2022/02/12 06:45:09;;;;;;;;;1.00;1.00;;;;;13.33;46.64;100073.75;4816016;28;102205;-80
2022/02/12 06:47:37;;;;;;;;;1.75;1.00;;;;;13.33;46.16;100073.75;4819044;28;104019;-80
2022/02/12 06:50:04;;;;;;;;;2.00;2.00;;;;;13.31;46.24;100082.09;4816758;28;102608;-80
2022/02/12 06:52:31;;;;;;;;;2.00;2.00;;;;;13.31;45.73;100086.69;4811900;28;109212;-80
2022/02/12 06:54:58;;;;;;;;;1.00;1.00;;;;;13.31;46.58;100090.25;4809436;28;103292;-80
2022/02/12 06:57:25;;;;;;;;;1.75;1.75;;;;;13.34;45.98;100097.19;4813597;28;102646;-80
2022/02/12 06:59:52;;;;;;;;;1.50;1.00;;;;;13.32;46.28;100100.09;4815315;29;102382;-80
2022/02/12 07:02:19;;;;;;;;;1.00;1.00;;;;;13.32;46.47;100088.38;4813665;28;106219;-80
2022/02/12 07:04:46;;;;;;;;;1.00;1.00;;;;;13.35;46.54;100098.88;4815651;28;102741;-80
2022/02/12 07:07:13;;;;;;;;;1.00;1.00;;;;;13.33;46.35;100099.06;4807837;28;102438;-79
2022/02/12 07:09:41;;;;;;;;;1.00;1.00;;;;;13.33;45.60;100095.47;4791918;28;103501;-80
2022/02/12 07:12:09;;;;;;;;;1.75;1.75;;;;;13.34;46.66;100106.19;4813692;28;104072;-80
2022/02/12 07:14:36;;;;;;;;;2.00;1.00;;;;;13.33;45.76;100109.91;4817762;28;104776;-80
2022/02/12 07:17:04;;;;;;;;;1.00;1.00;;;;;13.34;46.60;100121.63;4810332;29;102261;-80
2022/02/12 07:19:32;;;;;;;;;1.00;1.00;;;;;13.33;45.74;100128.94;4814578;28;102672;-80
2022/02/12 07:22:00;;;;;;;;;1.00;1.00;;;;;13.32;45.67;100127.25;4814975;28;104003;-80
2022/02/12 07:24:27;;;;;;;;;0.00;0.00;;;;;13.31;46.04;100128.28;4815638;28;102654;-80
2022/02/12 07:26:54;;;;;;;;;2.75;1.25;;;;;13.31;45.88;100125.56;4814068;28;103459;-79
2022/02/12 07:29:21;;;;;;;;;1.00;1.00;;;;;13.30;46.18;100139.31;4820801;28;103262;-80
2022/02/12 07:31:48;;;;;;;;;2.00;1.00;;;;;13.28;46.50;100142.22;4815458;28;104239;-80
2022/02/12 07:34:16;;;;;;;;;1.75;1.75;;;;;13.29;46.66;100149.34;4812954;28;102331;-80
2022/02/12 07:36:43;;;;;;;;;1.00;1.00;;;;;13.28;45.75;100144.94;4816292;28;102461;-79
2022/02/12 07:39:11;;;;;;;;;1.00;1.00;;;;;13.28;46.41;100153.06;4814752;28;102552;-79
2022/02/12 07:41:38;;;;;;;;;1.00;0.75;;;;;13.28;46.19;100158.50;4812242;28;103899;-79
2022/02/12 07:44:05;;;;;;;;;1.50;1.50;;;;;13.29;45.53;100162.06;4818493;29;102123;-80
2022/02/12 07:46:32;;;;;;;;;1.00;1.00;;;;;13.28;46.15;100174.81;4810630;28;105554;-80
2022/02/12 07:48:59;;;;;;;;;0.25;0.25;;;;;13.29;46.20;100173.78;4808889;28;102398;-80
2022/02/12 07:51:26;;;;;;;;;2.25;1.00;;;;;13.29;46.28;100173.78;4793329;28;104129;-80
2022/02/12 07:53:53;;;;;;;;;0.75;0.25;;;;;13.27;46.98;100167.72;4810364;28;102422;-80
2022/02/12 07:56:20;;;;;;;;;1.00;1.00;;;;;13.31;46.49;100182.63;4809015;28;102198;-80
2022/02/12 07:58:48;;;;;;;;;3.00;2.00;;;;;13.30;46.40;100180.91;4814034;28;112005;-80
2022/02/12 08:01:15;;;;;;;;;1.50;1.00;;;;;13.31;46.48;100187.19;4812666;28;104026;-80
2022/02/12 08:03:42;;;;;;;;;2.00;1.25;;;;;13.32;46.37;100178.88;4811828;28;102337;-80
2022/02/12 08:07:27;;;;;;;;;2.00;1.00;;;;;13.34;46.48;100189.56;4831157;28;102706;-80
2022/02/12 08:08:58;;;;;;;;;1.00;1.00;;;;;13.33;47.44;100191.41;4814721;28;104602;-81
2022/02/12 08:11:27;;;;;;;;;0.75;0.25;;;;;13.36;46.54;100193.78;4815533;28;105367;-79
2022/02/12 08:13:54;;;;;;;;;0.75;0.75;;;;;13.35;46.86;100197.53;4829152;28;102069;-80
2022/02/12 08:16:22;;;;;;;;;3.00;1.00;;;;;13.36;46.95;100198.38;4814991;28;102209;-80
2022/02/12 08:18:49;;;;;;;;;0.75;0.50;;;;;13.35;46.13;100200.25;4814693;28;102523;-79
2022/02/12 08:21:16;;;;;;;;;1.00;1.00;;;;;13.36;46.95;100203.81;4815815;28;104199;-80
2022/02/12 08:23:43;;;;;;;;;1.00;0.25;;;;;13.37;46.71;100206.34;4817307;28;102447;-79
2022/02/12 08:26:11;;;;;;;;;1.00;1.00;;;;;13.39;46.53;100214.31;4808942;28;103276;-79
2022/02/12 08:28:38;;;;;;;;;1.00;1.00;;;;;13.38;46.52;100208.03;4816787;28;104913;-79
2022/02/12 08:31:05;;;;;;;;;0.50;0.50;;;;;13.39;46.82;100208.88;4835268;28;104085;-80
2022/02/12 08:33:32;;;;;;;;;1.00;1.00;;;;;13.39;46.43;100215.16;4818974;28;103692;-80
2022/02/12 08:35:59;;;;;;;;;1.00;1.00;;;;;13.41;46.56;100223.16;4820080;28;102218;-80
2022/02/12 08:38:26;;;;;;;;;1.00;1.00;;;;;13.40;46.02;100222.28;4820296;28;102766;-80
2022/02/12 08:40:53;;;;;;;;;0.25;0.25;;;;;13.40;46.46;100222.28;4820641;28;104248;-80
2022/02/12 08:43:20;;;;;;;;;1.75;1.75;;;;;13.40;46.10;100227.72;4814551;28;102668;-80
2022/02/12 08:45:48;;;;;;;;;1.50;1.50;;;;;13.39;46.24;100230.63;4822641;28;102769;-80
2022/02/12 08:48:17;;;;;;;;;0.00;0.00;;;;;13.40;45.71;100233.16;4816632;28;102582;-80
2022/02/12 08:50:47;;;;;;;;;2.00;1.25;;;;;13.44;45.78;100235.50;4818333;28;103047;-79
2022/02/12 08:53:16;;;;;;;;;2.00;1.00;;;;;13.44;46.08;100249.09;4798071;28;102514;-80
2022/02/12 08:55:43;;;;;;;;;0.50;0.50;;;;;13.45;45.77;100239.94;4791566;28;110973;-80
2022/02/12 08:58:13;;;;;;;;;1.00;1.00;;;;;13.42;46.18;100243.00;4816416;28;105181;-80
2022/02/12 09:00:40;;;;;;;;;1.75;1.00;;;;;13.43;46.35;100247.41;4802100;28;104024;-80
2022/02/12 09:03:14;;;;;;;;;1.00;1.00;;;;;13.44;45.63;100249.09;4828057;28;102219;-80
2022/02/12 09:05:41;;;;;;;;;2.25;1.75;;;;;13.47;45.35;100254.16;4792863;28;103500;-81
2022/02/12 09:08:10;;;;;;;;;1.50;1.50;;;;;13.47;45.55;100256.88;4822332;28;103691;-81
2022/02/12 09:10:38;;;;;;;;;1.00;1.00;;;;;13.48;45.15;100261.31;4817777;28;103944;-79
2022/02/12 09:13:05;;;;;;;;;2.00;1.00;;;;;13.47;46.17;100265.03;4820060;28;102177;-80
2022/02/12 09:15:32;;;;;;;;;0.50;0.00;;;;;13.47;45.06;100249.59;4703715;28;104459;-80
2022/02/12 09:17:59;;;;;;;;;2.00;1.00;;;;;13.45;45.75;100248.94;4814024;28;102418;-80
2022/02/12 09:20:26;;;;;;;;;1.00;0.50;;;;;13.47;45.42;100251.44;4818732;28;103815;-80
2022/02/12 09:22:53;;;;;;;;;0.00;0.00;;;;;13.47;45.72;100257.72;4818470;28;102264;-80
2022/02/12 09:25:20;;;;;;;;;1.00;1.00;;;;;13.47;45.28;100255.00;4817540;28;102490;-80
2022/02/12 09:27:47;;;;;;;;;1.25;1.25;;;;;13.47;46.07;100257.72;4812665;28;104019;-80
2022/02/12 09:30:14;;;;;;;;;1.00;1.00;;;;;13.47;45.71;100259.59;4806696;28;104117;-80
2022/02/12 09:32:41;;;;;;;;;0.00;0.00;;;;;13.46;45.70;100263.38;4818244;28;102817;-80
2022/02/12 09:35:08;;;;;;;;;1.00;1.00;;;;;13.47;45.32;100257.72;4817217;28;102296;-80
2022/02/12 09:37:35;;;;;;;;;1.00;0.75;;;;;13.45;45.85;100251.66;4816707;28;105735;-80
2022/02/12 09:40:04;;;;;;;;;2.00;1.75;;;;;13.45;45.11;100256.22;4816775;28;104130;-80
2022/02/12 09:42:32;;;;;;;;;1.00;1.00;;;;;13.44;45.56;100249.09;4818851;28;103171;-81
2022/02/12 09:44:59;;;;;;;;;1.00;1.00;;;;;13.45;45.28;100250.78;4817041;28;102482;-80
2022/02/12 09:47:32;;;;;;;;;1.00;1.00;;;;;13.46;45.26;100252.50;4823823;28;104075;-80
2022/02/12 09:49:59;;;;;;;;;1.00;1.00;;;;;13.47;46.21;100254.16;4818456;28;108806;-81
2022/02/12 09:52:31;;;;;;;;;1.00;1.00;;;;;13.47;45.72;100256.88;4821253;28;102199;-80
2022/02/12 09:54:59;;;;;;;;;0.75;0.75;;;;;13.47;45.12;100265.03;4821312;28;102388;-80
2022/02/12 09:57:26;;;;;;;;;1.00;1.00;;;;;13.47;45.59;100270.47;4821827;28;104153;-80
2022/02/12 10:00:01;;;;;;;;;1.00;1.00;;;;;13.48;45.29;100269.44;4821218;28;104100;-80
2022/02/12 10:02:28;;;;;;;;;1.00;1.00;;;;;13.49;45.14;100271.16;4803643;28;102110;-80
2022/02/12 10:05:19;;;;;;;;;1.00;1.00;;;;;13.48;45.58;100267.59;4819169;28;102212;-80
2022/02/12 10:07:47;;;;;;;;;1.00;1.00;;;;;13.50;45.37;100275.56;4819225;28;103506;-80
2022/02/12 10:10:18;;;;;;;;;1.00;1.00;;;;;13.47;45.26;100270.47;4817276;28;104075;-80
2022/02/12 10:12:46;;;;;;;;;0.75;0.75;;;;;13.50;45.43;100268.25;4809843;28;103447;-80
2022/02/12 10:15:23;;;;;;;;;1.00;1.00;;;;;13.50;45.22;100270.13;4813447;28;102666;-80
2022/02/12 10:17:57;;;;;;;;;1.75;0.00;;;;;13.50;44.95;100259.25;4830304;28;102387;-80
2022/02/12 10:20:28;;;;;;;;;1.00;1.00;;;;;13.51;45.00;100260.97;4817350;29;108941;-80
2022/02/12 10:23:06;;;;;;;;;1.00;0.75;;;;;13.52;45.80;100257.19;4820329;29;102144;-80
2022/02/12 10:25:33;;;;;;;;;0.00;0.00;;;;;13.52;44.73;100258.03;4814970;28;103062;-80
2022/02/12 10:28:01;;;;;;;;;0.75;0.75;;;;;13.52;45.00;100254.47;4816797;28;102581;-80
2022/02/12 10:30:28;;;;;;;;;2.00;2.00;;;;;13.53;45.47;100258.91;4816120;28;104027;-80
2022/02/12 10:33:04;;;;;;;;;1.00;1.00;;;;;13.52;45.68;100260.75;4814426;28;102622;-80
2022/02/12 10:35:32;;;;;;;;;2.00;1.00;;;;;13.55;45.84;100268.56;4813292;28;102402;-80
2022/02/12 10:38:02;;;;;;;;;0.50;0.50;;;;;13.55;45.15;100267.72;4821702;28;102467;-80
2022/02/12 10:40:31;;;;;;;;;0.00;0.00;;;;;13.54;45.72;100261.44;4812248;28;104014;-80
2022/02/12 10:42:59;;;;;;;;;0.50;0.50;;;;;13.55;45.01;100262.28;4810297;28;102457;-80
2022/02/12 10:45:28;;;;;;;;;0.00;0.00;;;;;13.55;45.76;100260.44;4817054;28;102326;-77
2022/02/12 10:47:57;;;;;;;;;1.50;0.75;;;;;13.57;45.25;100254.78;4818607;28;103148;-80
2022/02/12 10:50:27;;;;;;;;;0.25;0.25;;;;;13.58;44.73;100256.50;4817219;28;108324;-80
2022/02/12 10:52:59;;;;;;;;;1.00;1.00;;;;;13.59;45.12;100255.47;4817490;28;102359;-80
2022/02/12 10:55:35;;;;;;;;;1.00;1.00;;;;;13.58;44.83;100249.19;4816784;28;102688;-79
2022/02/12 10:58:09;;;;;;;;;1.00;1.00;;;;;13.59;45.37;100250.03;4813298;28;102290;-79
2022/02/12 11:00:40;;;;;;;;;1.25;1.00;;;;;13.59;45.44;100241.88;4818194;28;104050;-79
2022/02/12 11:03:16;;;;;;;;;0.00;0.00;;;;;13.59;45.44;100236.44;4811924;28;102361;-79
2022/02/12 11:05:48;;;;;;;;;2.00;1.00;;;;;13.59;45.04;100229.13;4816241;28;102219;-79
2022/02/12 11:08:15;;;;;;;;;0.00;0.00;;;;;13.60;45.10;100240.84;4823963;28;102190;-79
2022/02/12 11:10:43;;;;;;;;;2.00;1.00;;;;;13.60;45.12;100235.44;4813998;28;104203;-79
2022/02/12 11:13:10;;;;;;;;;2.00;1.00;;;;;13.59;45.63;100229.13;4821335;28;103158;-80
2022/02/12 11:15:37;;;;;;;;;1.00;1.00;;;;;13.59;45.05;100228.28;4819989;28;102280;-79
2022/02/12 11:18:12;;;;;;;;;0.75;0.75;;;;;13.58;45.27;100226.59;4812199;28;102575;-79
2022/02/12 11:20:40;;;;;;;;;1.00;1.00;;;;;13.60;44.73;100221.84;4815860;28;105052;-79
2022/02/12 11:23:24;;;;;;;;;0.25;0.25;;;;;13.62;45.22;100219.75;4818526;28;102558;-79
2022/02/12 11:25:52;;;;;;;;;0.00;0.00;;;;;13.64;45.47;100223.16;4813634;28;106408;-79
2022/02/12 11:28:19;;;;;;;;;1.00;1.00;;;;;13.64;45.00;100220.44;4819542;28;102263;-79
2022/02/12 11:30:46;;;;;;;;;0.75;0.75;;;;;13.65;44.64;100220.25;4801918;29;104094;-80